Time;durP1;ratioP1;P1;durP2;ratioP2;P2;SDS_P1;SDS_P2;PMS_P1;PMS_P2;Temp;Humidity;BMP_temperature;BMP_pressure;BME280_temperature;BME280_humidity;BME280_pressure;Samples;Min_cycle;Max_cycle;Signal;HPM_P1;HPM_P2
2022/01/11 00:00:30;;;;;;;;;;;;;;;2.02;95.75;99256.41;5013394;28;880;-55
2022/01/11 00:02:57;;;;;;;;;;;;;;;1.99;95.98;99226.38;5013261;28;785;-56
2022/01/11 00:07:51;;;;;;;;;;;;;;;1.97;96.31;99240.34;5013166;28;618;-56
2022/01/11 00:10:27;;;;;;;;;;;;;;;1.95;95.74;99252.78;5013133;28;885;-55
2022/01/11 00:12:54;;;;;;;;;;;;;;;1.92;96.01;99253.47;5012697;28;1105;-55
2022/01/11 00:15:20;;;;;;;;;;;;;;;1.91;95.64;99306.41;5013226;28;865;-54
2022/01/11 00:17:46;;;;;;;;;;;;;;;1.85;95.74;99305.88;5012789;28;1894;-55
2022/01/11 00:20:15;;;;;;;;;;;;;;;1.88;96.22;99301.66;5012914;28;916;-55
2022/01/11 00:24:27;;;;;;;;;;;;;;;1.85;95.89;99330.41;5013002;28;875;-54
2022/01/11 00:25:30;;;;;;;;;;;;;;;1.84;95.88;99312.50;5012685;28;893;-55
2022/01/11 00:27:58;;;;;;;;;;;;;;;1.81;96.17;99314.00;5012971;28;911;-57
2022/01/11 00:30:30;;;;;;;;;;;;;;;1.78;95.88;99319.38;5013020;28;896;-57
2022/01/11 00:33:00;;;;;;;;;;;;;;;1.72;96.04;99320.78;5012422;28;1204;-57
2022/01/11 00:35:39;;;;;;;;;;;;;;;1.69;96.81;99321.50;5012584;28;918;-58
2022/01/11 00:38:07;;;;;;;;;;;;;;;1.65;96.75;99336.97;5012846;28;1910;-58
2022/01/11 00:40:34;;;;;;;;;;;;;;;1.61;96.74;99298.75;5012879;28;840;-58
2022/01/11 00:43:01;;;;;;;;;;;;;;;1.57;97.11;99325.13;5013312;28;824;-58
2022/01/11 00:45:27;;;;;;;;;;;;;;;1.57;96.86;99322.38;5012879;28;860;-57
2022/01/11 00:47:54;;;;;;;;;;;;;;;1.57;97.14;99325.91;5012873;28;821;-57
2022/01/11 00:50:21;;;;;;;;;;;;;;;1.55;97.39;99321.94;5012567;28;809;-58
2022/01/11 00:52:48;;;;;;;;;;;;;;;1.52;97.80;99314.50;5013057;28;844;-57
2022/01/11 00:55:15;;;;;;;;;;;;;;;1.47;97.10;99326.44;5013030;28;781;-58
2022/01/11 00:57:41;;;;;;;;;;;;;;;1.46;97.77;99319.41;5012858;28;1959;-59
2022/01/11 01:00:11;;;;;;;;;;;;;;;1.46;97.67;99333.03;5012192;28;959;-59
2022/01/11 01:02:38;;;;;;;;;;;;;;;1.44;97.32;99321.69;5012302;28;928;-59
2022/01/11 01:05:05;;;;;;;;;;;;;;;1.40;97.14;99329.00;5012443;28;828;-59
2022/01/11 01:07:30;;;;;;;;;;;;;;;1.36;97.23;99341.72;5012355;28;894;-59
2022/01/11 01:10:13;;;;;;;;;;;;;;;1.34;96.99;99333.13;5012574;28;837;-58
2022/01/11 01:12:40;;;;;;;;;;;;;;;1.27;97.09;99368.34;5012199;28;1051;-59
2022/01/11 01:15:07;;;;;;;;;;;;;;;1.30;97.58;99375.81;5012077;28;884;-59
2022/01/11 01:17:33;;;;;;;;;;;;;;;1.27;97.09;99385.47;5011937;28;1953;-59
2022/01/11 01:19:59;;;;;;;;;;;;;;;1.25;97.21;99401.34;5012059;28;975;-59
2022/01/11 01:22:26;;;;;;;;;;;;;;;1.22;97.95;99408.31;5011879;28;924;-59
2022/01/11 01:24:53;;;;;;;;;;;;;;;1.07;97.35;99402.81;5011035;28;891;-59
2022/01/11 01:27:20;;;;;;;;;;;;;;;1.01;97.35;99408.53;5011897;28;908;-58
2022/01/11 01:29:46;;;;;;;;;;;;;;;0.99;98.04;99408.06;5011825;28;825;-58
2022/01/11 01:32:13;;;;;;;;;;;;;;;0.97;98.09;99412.28;5011673;28;1422;-58
2022/01/11 01:34:39;;;;;;;;;;;;;;;0.95;97.56;99400.97;5011983;28;829;-59
2022/01/11 01:37:07;;;;;;;;;;;;;;;0.93;98.28;99416.84;5011847;28;861;-58
2022/01/11 01:39:34;;;;;;;;;;;;;;;0.92;98.17;99416.06;5011582;28;1942;-59
2022/01/11 01:42:04;;;;;;;;;;;;;;;0.89;97.83;99397.69;5011657;28;867;-59
2022/01/11 01:44:33;;;;;;;;;;;;;;;0.89;98.30;99413.22;5011619;28;959;-59
2022/01/11 01:46:59;;;;;;;;;;;;;;;0.89;97.93;99410.50;5011533;28;896;-59
2022/01/11 01:49:27;;;;;;;;;;;;;;;0.86;98.10;99401.13;5011649;28;931;-59
2022/01/11 01:51:53;;;;;;;;;;;;;;;0.83;98.31;99404.50;4994034;28;1326;-58
2022/01/11 01:54:21;;;;;;;;;;;;;;;0.80;98.00;99391.63;5011602;28;872;-58
2022/01/11 01:56:47;;;;;;;;;;;;;;;0.78;98.09;99399.31;5011678;28;856;-59
2022/01/11 01:59:14;;;;;;;;;;;;;;;0.70;97.54;99394.81;4993882;28;1957;-60
2022/01/11 02:01:46;;;;;;;;;;;;;;;0.66;97.68;99380.31;5011534;28;871;-60
2022/01/11 02:04:13;;;;;;;;;;;;;;;0.59;97.79;99397.25;5012084;28;884;-60
2022/01/11 02:06:39;;;;;;;;;;;;;;;0.54;97.74;99397.50;5011832;28;907;-59
2022/01/11 02:09:06;;;;;;;;;;;;;;;0.51;98.05;99393.53;5011905;28;749;-60
2022/01/11 02:11:32;;;;;;;;;;;;;;;0.51;97.96;99382.66;5011462;28;829;-60
2022/01/11 02:14:00;;;;;;;;;;;;;;;0.51;97.61;99379.94;5011863;28;974;-60
2022/01/11 02:16:26;;;;;;;;;;;;;;;0.48;97.79;99383.34;5011583;28;869;-60
2022/01/11 02:18:53;;;;;;;;;;;;;;;0.51;97.46;99393.53;5011325;28;1867;-59
2022/01/11 02:21:21;;;;;;;;;;;;;;;0.51;97.09;99406.34;5011213;28;923;-60
2022/01/11 02:23:49;;;;;;;;;;;;;;;0.47;97.05;99395.38;5011432;28;817;-58
2022/01/11 02:26:16;;;;;;;;;;;;;;;0.40;96.24;99389.72;5011623;28;836;-60
2022/01/11 02:28:43;;;;;;;;;;;;;;;0.34;96.53;99415.53;5011491;28;959;-58
2022/01/11 02:31:12;;;;;;;;;;;;;;;0.29;96.55;99404.91;5011172;28;1432;-58
2022/01/11 02:33:43;;;;;;;;;;;;;;;0.26;96.70;99409.13;5011622;28;836;-58
2022/01/11 02:36:14;;;;;;;;;;;;;;;0.24;96.99;99388.84;5013382;28;986;-59
2022/01/11 02:38:41;;;;;;;;;;;;;;;0.22;96.55;99388.41;5014859;28;1914;-59
2022/01/11 02:41:06;;;;;;;;;;;;;;;0.22;96.53;99391.91;5014997;28;837;-59
2022/01/11 02:43:33;;;;;;;;;;;;;;;0.19;96.48;99396.13;5014768;28;988;-59
2022/01/11 02:46:01;;;;;;;;;;;;;;;0.20;95.88;99394.19;5014706;28;888;-60
2022/01/11 02:48:27;;;;;;;;;;;;;;;0.21;96.25;99414.78;4997099;28;1329;-57
2022/01/11 02:50:54;;;;;;;;;;;;;;;0.19;95.49;99406.16;5014645;28;893;-57
2022/01/11 02:53:20;;;;;;;;;;;;;;;0.15;96.06;99413.41;5014722;28;825;-58
2022/01/11 02:55:47;;;;;;;;;;;;;;;0.08;96.15;99422.16;5014610;28;808;-57
2022/01/11 02:58:13;;;;;;;;;;;;;;;0.05;96.06;99427.50;5014685;28;1910;-56
2022/01/11 03:00:40;;;;;;;;;;;;;;;0.07;96.15;99415.16;5014589;28;816;-57
2022/01/11 03:03:11;;;;;;;;;;;;;;;0.10;95.60;99432.69;5014452;28;844;-57
2022/01/11 03:05:44;;;;;;;;;;;;;;;0.10;95.85;99449.00;5014381;28;879;-59
2022/01/11 03:08:10;;;;;;;;;;;;;;;0.06;95.85;99440.72;5014335;28;825;-59
2022/01/11 03:10:37;;;;;;;;;;;;;;;0.05;96.08;99438.38;5014433;28;852;-58
2022/01/11 03:13:05;;;;;;;;;;;;;;;0.02;95.64;99439.03;5014479;28;972;-58
2022/01/11 03:15:32;;;;;;;;;;;;;;;-0.07;95.94;99444.59;5014045;28;899;-57
2022/01/11 03:17:59;;;;;;;;;;;;;;;-0.09;95.78;99449.56;5014069;28;1890;-58
2022/01/11 03:20:26;;;;;;;;;;;;;;;-0.10;96.08;99462.38;5014106;28;880;-57
2022/01/11 03:22:51;;;;;;;;;;;;;;;-0.13;96.16;99473.91;5014186;28;868;-58
2022/01/11 03:25:18;;;;;;;;;;;;;;;-0.17;95.93;99492.03;5014225;28;836;-57
2022/01/11 03:27:45;;;;;;;;;;;;;;;-0.21;95.85;99505.47;5014032;28;911;-57
2022/01/11 03:30:12;;;;;;;;;;;;;;;-0.23;96.09;99496.88;5013853;28;866;-57
2022/01/11 03:32:38;;;;;;;;;;;;;;;-0.23;96.16;99520.53;4996235;28;1280;-57
2022/01/11 03:35:05;;;;;;;;;;;;;;;-0.31;95.83;99522.22;5013766;28;884;-58
2022/01/11 03:37:32;;;;;;;;;;;;;;;-0.32;95.83;99533.41;5013730;28;1906;-57
2022/01/11 03:39:58;;;;;;;;;;;;;;;-0.30;95.85;99534.66;5013691;28;877;-55
2022/01/11 03:42:25;;;;;;;;;;;;;;;-0.36;95.18;99549.59;5013599;28;857;-58
2022/01/11 03:44:52;;;;;;;;;;;;;;;-0.37;94.94;99525.47;5013649;28;837;-57
2022/01/11 03:47:18;;;;;;;;;;;;;;;-0.37;94.65;99525.47;5012661;28;813;-58
2022/01/11 03:49:44;;;;;;;;;;;;;;;-0.35;94.90;99513.13;5013570;28;836;-58
2022/01/11 03:52:11;;;;;;;;;;;;;;;-0.36;94.47;99527.88;5013526;28;883;-58
2022/01/11 03:55:21;;;;;;;;;;;;;;;-0.36;94.51;99536.00;4996005;28;919;-57
2022/01/11 03:57:30;;;;;;;;;;;;;;;-0.33;94.89;99521.75;4996665;28;1878;-58
2022/01/11 03:59:58;;;;;;;;;;;;;;;-0.26;94.58;99515.75;5013362;28;888;-59
2022/01/11 04:02:28;;;;;;;;;;;;;;;-0.21;94.10;99546.22;5013266;28;840;-58
2022/01/11 04:04:55;;;;;;;;;;;;;;;-0.17;93.35;99538.22;5013227;28;958;-60
2022/01/11 04:07:22;;;;;;;;;;;;;;;-0.23;93.70;99536.84;5013150;28;975;-58
2022/01/11 04:09:49;;;;;;;;;;;;;;;-0.24;94.04;99546.09;5013157;28;883;-57
2022/01/11 04:12:16;;;;;;;;;;;;;;;-0.25;93.62;99539.88;5013207;28;961;-57
2022/01/11 04:14:42;;;;;;;;;;;;;;;-0.24;93.88;99529.78;5012955;28;849;-57
2022/01/11 04:17:09;;;;;;;;;;;;;;;-0.23;93.87;99540.34;5012941;28;927;-57
2022/01/11 04:19:35;;;;;;;;;;;;;;;-0.22;93.40;99568.28;5012860;28;1886;-58
2022/01/11 04:22:02;;;;;;;;;;;;;;;-0.19;92.73;99564.91;5012790;28;956;-57
2022/01/11 04:24:29;;;;;;;;;;;;;;;-0.15;93.19;99573.16;5012927;28;833;-57
2022/01/11 04:26:55;;;;;;;;;;;;;;;-0.19;92.88;99572.25;5012761;28;865;-57
2022/01/11 04:29:22;;;;;;;;;;;;;;;-0.19;92.27;99585.81;5012768;28;868;-58
2022/01/11 04:31:49;;;;;;;;;;;;;;;-0.19;92.95;99583.13;5012558;28;1334;-57
2022/01/11 04:34:16;;;;;;;;;;;;;;;-0.19;92.39;99580.41;5012788;28;836;-57
2022/01/11 04:36:42;;;;;;;;;;;;;;;-0.15;92.45;99600.34;5012644;28;825;-57
2022/01/11 04:39:11;;;;;;;;;;;;;;;-0.11;92.48;99601.25;5012582;28;1971;-57
2022/01/11 04:41:37;;;;;;;;;;;;;;;-0.16;91.71;99591.41;5012524;28;882;-57
2022/01/11 04:44:04;;;;;;;;;;;;;;;-0.19;91.87;99594.78;5012476;28;813;-57
2022/01/11 04:46:30;;;;;;;;;;;;;;;-0.17;91.95;99608.03;5012522;28;837;-58
2022/01/11 04:48:59;;;;;;;;;;;;;;;-0.25;91.38;99613.22;5012461;28;915;-58
2022/01/11 04:51:26;;;;;;;;;;;;;;;-0.24;91.61;99612.06;5012384;28;1079;-58
2022/01/11 04:53:52;;;;;;;;;;;;;;;-0.29;91.86;99615.00;4994732;28;1595;-58
2022/01/11 04:56:18;;;;;;;;;;;;;;;-0.31;91.56;99627.34;5012276;28;828;-58
2022/01/11 04:58:45;;;;;;;;;;;;;;;-0.29;91.42;99611.50;5012087;28;1898;-59
2022/01/11 05:01:11;;;;;;;;;;;;;;;-0.28;91.01;99615.78;4994653;28;720;-59
2022/01/11 05:03:38;;;;;;;;;;;;;;;-0.27;91.22;99620.13;5012116;28;1469;-58
2022/01/11 05:06:04;;;;;;;;;;;;;;;-0.24;91.76;99617.50;5012239;28;928;-58
2022/01/11 05:08:31;;;;;;;;;;;;;;;-0.30;90.79;99618.88;5012139;28;852;-58
2022/01/11 05:10:57;;;;;;;;;;;;;;;-0.33;90.58;99608.66;5012114;28;825;-58
2022/01/11 05:13:24;;;;;;;;;;;;;;;-0.38;90.92;99611.59;5012262;28;916;-59
2022/01/11 05:15:50;;;;;;;;;;;;;;;-0.42;91.01;99611.44;5012079;28;911;-59
2022/01/11 05:18:17;;;;;;;;;;;;;;;-0.47;91.11;99606.25;5011925;28;1975;-59
2022/01/11 05:20:45;;;;;;;;;;;;;;;-0.47;91.25;99608.94;5011974;28;891;-59
2022/01/11 05:23:13;;;;;;;;;;;;;;;-0.45;90.99;99616.75;5012149;28;844;-59
2022/01/11 05:25:41;;;;;;;;;;;;;;;-0.48;90.43;99610.06;5011852;28;877;-59
2022/01/11 05:28:06;;;;;;;;;;;;;;;-0.46;90.11;99609.75;5011747;28;877;-59
2022/01/11 05:30:33;;;;;;;;;;;;;;;-0.47;89.96;99613.56;5011826;28;821;-59
2022/01/11 05:32:59;;;;;;;;;;;;;;;-0.51;89.61;99615.34;5011674;28;1449;-58
2022/01/11 05:35:26;;;;;;;;;;;;;;;-0.54;89.88;99605.97;5011786;28;874;-59
2022/01/11 05:37:53;;;;;;;;;;;;;;;-0.56;89.62;99608.22;5011997;28;1910;-58
2022/01/11 05:40:20;;;;;;;;;;;;;;;-0.55;88.81;99603.59;5011721;28;884;-59
2022/01/11 05:42:48;;;;;;;;;;;;;;;-0.54;88.81;99630.41;5011630;28;982;-59
2022/01/11 05:45:16;;;;;;;;;;;;;;;-0.55;89.02;99615.25;5011742;28;824;-59
2022/01/11 05:47:42;;;;;;;;;;;;;;;-0.55;88.87;99626.09;5011742;28;860;-63
2022/01/11 05:50:09;;;;;;;;;;;;;;;-0.55;89.03;99633.47;5011706;28;907;-59
2022/01/11 05:52:36;;;;;;;;;;;;;;;-0.59;88.49;99646.91;5011729;28;887;-58
2022/01/11 05:55:03;;;;;;;;;;;;;;;-0.64;87.95;99637.03;5011820;28;891;-58
2022/01/11 05:57:29;;;;;;;;;;;;;;;-0.66;88.32;99671.88;5011584;28;1890;-57
2022/01/11 05:59:56;;;;;;;;;;;;;;;-0.65;88.48;99646.28;5011568;28;836;-57
2022/01/11 06:02:22;;;;;;;;;;;;;;;-0.68;88.56;99636.09;5011576;28;809;-58
2022/01/11 06:04:49;;;;;;;;;;;;;;;-0.68;88.33;99644.25;5011776;28;955;-57
2022/01/11 06:07:15;;;;;;;;;;;;;;;-0.68;88.00;99619.03;5011304;28;814;-57
2022/01/11 06:09:40;;;;;;;;;;;;;;;-0.69;87.82;99625.56;5011583;28;845;-58
2022/01/11 06:12:07;;;;;;;;;;;;;;;-0.65;88.19;99640.88;5015203;28;1068;-57
2022/01/11 06:14:35;;;;;;;;;;;;;;;-0.67;88.22;99636.91;5015383;28;892;-57
2022/01/11 06:17:02;;;;;;;;;;;;;;;-0.64;87.99;99650.63;5015215;28;908;-57
2022/01/11 06:19:28;;;;;;;;;;;;;;;-0.65;87.66;99640.88;5015495;28;1889;-56
2022/01/11 06:21:55;;;;;;;;;;;;;;;-0.64;86.87;99653.31;5015308;28;833;-57
2022/01/11 06:24:21;;;;;;;;;;;;;;;-0.57;87.35;99655.50;5015289;28;883;-57
2022/01/11 06:26:48;;;;;;;;;;;;;;;-0.57;87.24;99657.44;5015131;28;812;-56
2022/01/11 06:29:14;;;;;;;;;;;;;;;-0.58;86.32;99666.69;5015052;28;919;-57
2022/01/11 06:31:40;;;;;;;;;;;;;;;-0.61;86.88;99665.44;5014854;28;1428;-57
2022/01/11 06:34:06;;;;;;;;;;;;;;;-0.62;87.10;99670.09;5015015;28;833;-57
2022/01/11 06:36:33;;;;;;;;;;;;;;;-0.59;86.81;99678.69;5014970;28;881;-58
2022/01/11 06:38:59;;;;;;;;;;;;;;;-0.62;86.77;99682.84;5014843;28;1918;-57
2022/01/11 06:41:26;;;;;;;;;;;;;;;-0.56;86.10;99678.00;5014953;28;880;-58
2022/01/11 06:43:54;;;;;;;;;;;;;;;-0.55;86.67;99685.84;5014953;28;864;-58
2022/01/11 06:46:23;;;;;;;;;;;;;;;-0.50;86.90;99703.84;5014919;28;923;-58
2022/01/11 06:48:51;;;;;;;;;;;;;;;-0.55;86.67;99699.41;5014646;28;873;-58
2022/01/11 06:51:17;;;;;;;;;;;;;;;-0.58;87.02;99713.63;5014626;28;1296;-58
2022/01/11 06:53:44;;;;;;;;;;;;;;;-0.61;86.81;99717.03;5014653;28;864;-58
2022/01/11 06:56:10;;;;;;;;;;;;;;;-0.58;86.71;99721.00;5014610;28;825;-58
2022/01/11 06:58:38;;;;;;;;;;;;;;;-0.66;86.47;99728.09;5014523;28;1894;-57
2022/01/11 07:01:05;;;;;;;;;;;;;;;-0.70;86.71;99741.50;5014677;28;875;-57
2022/01/11 07:03:31;;;;;;;;;;;;;;;-0.65;86.89;99744.03;5014463;28;846;-59
2022/01/11 07:05:57;;;;;;;;;;;;;;;-0.61;87.04;99760.47;5014364;28;895;-58
2022/01/11 07:08:26;;;;;;;;;;;;;;;-0.68;86.87;99788.13;5014434;28;872;-59
2022/01/11 07:10:54;;;;;;;;;;;;;;;-0.69;87.32;99781.09;5014190;28;899;-59
2022/01/11 07:13:21;;;;;;;;;;;;;;;-0.65;86.89;99800.25;5014683;28;965;-59
2022/01/11 07:15:47;;;;;;;;;;;;;;;-0.69;87.70;99815.59;5014194;28;758;-59
2022/01/11 07:18:14;;;;;;;;;;;;;;;-0.74;87.50;99821.22;5014146;28;1898;-59
2022/01/11 07:20:43;;;;;;;;;;;;;;;-0.76;87.82;99818.03;5014138;28;856;-59
2022/01/11 07:23:11;;;;;;;;;;;;;;;-0.83;87.63;99840.25;5012690;28;829;-59
2022/01/11 07:25:38;;;;;;;;;;;;;;;-0.87;87.03;99831.16;5014038;28;845;-59
2022/01/11 07:28:05;;;;;;;;;;;;;;;-0.87;87.02;99833.88;5014030;28;872;-59
2022/01/11 07:30:31;;;;;;;;;;;;;;;-0.86;86.97;99822.66;5013974;28;840;-59
2022/01/11 07:32:57;;;;;;;;;;;;;;;-0.87;87.01;99837.38;5013654;28;1396;-59
2022/01/11 07:35:24;;;;;;;;;;;;;;;-0.87;86.73;99836.59;5013918;28;812;-58
2022/01/11 07:37:52;;;;;;;;;;;;;;;-0.88;87.14;99835.75;5013562;28;1910;-58
2022/01/11 07:40:18;;;;;;;;;;;;;;;-0.95;86.95;99843.63;5013579;28;920;-59
2022/01/11 07:42:45;;;;;;;;;;;;;;;-0.96;86.61;99823.06;5013714;28;881;-58
2022/01/11 07:45:11;;;;;;;;;;;;;;;-1.00;86.59;99845.69;5013575;28;868;-57
2022/01/11 07:47:38;;;;;;;;;;;;;;;-1.02;86.29;99846.03;5013688;28;892;-57
2022/01/11 07:50:06;;;;;;;;;;;;;;;-0.97;86.84;99855.91;5013444;28;1215;-55
2022/01/11 07:52:33;;;;;;;;;;;;;;;-0.95;86.04;99826.56;5013636;28;832;-56
2022/01/11 07:55:00;;;;;;;;;;;;;;;-0.83;86.84;99853.81;5013388;28;868;-55
2022/01/11 07:57:27;;;;;;;;;;;;;;;-0.72;86.57;99844.19;5013434;28;868;-55
2022/01/11 07:59:54;;;;;;;;;;;;;;;-0.82;85.81;99830.97;5013321;28;1948;-58
2022/01/11 08:02:22;;;;;;;;;;;;;;;-0.83;85.41;99846.47;5013626;28;916;-57
2022/01/11 08:04:51;;;;;;;;;;;;;;;-0.82;85.55;99830.97;5013189;28;928;-58
2022/01/11 08:07:18;;;;;;;;;;;;;;;-0.83;85.23;99837.53;5013117;28;970;-57
2022/01/11 08:09:45;;;;;;;;;;;;;;;-0.75;84.93;99822.31;5013118;28;935;-57
2022/01/11 08:12:12;;;;;;;;;;;;;;;-0.72;85.05;99813.53;5013307;28;1035;-57
2022/01/11 08:14:37;;;;;;;;;;;;;;;-0.70;85.07;99820.22;5013129;28;816;-57
2022/01/11 08:17:04;;;;;;;;;;;;;;;-0.64;84.98;99813.50;5013027;28;837;-57
2022/01/11 08:19:31;;;;;;;;;;;;;;;-0.58;84.72;99818.72;5013037;28;1971;-55
2022/01/11 08:21:57;;;;;;;;;;;;;;;-0.63;84.08;99809.63;5012981;28;895;-56
2022/01/11 08:24:24;;;;;;;;;;;;;;;-0.61;84.18;99828.31;4995275;28;1200;-56
2022/01/11 08:26:53;;;;;;;;;;;;;;;-0.65;85.02;99822.75;5013162;28;832;-56
2022/01/11 08:29:21;;;;;;;;;;;;;;;-0.66;84.71;99807.59;5012653;28;976;-55
2022/01/11 08:31:48;;;;;;;;;;;;;;;-0.66;85.01;99813.03;5012900;28;1274;-55
2022/01/11 08:34:15;;;;;;;;;;;;;;;-0.64;84.66;99813.50;5012295;28;857;-57
2022/01/11 08:36:42;;;;;;;;;;;;;;;-0.70;84.41;99819.44;5012834;28;877;-56
2022/01/11 08:39:10;;;;;;;;;;;;;;;-0.75;84.30;99828.53;5012511;28;1973;-56
2022/01/11 08:41:36;;;;;;;;;;;;;;;-0.82;84.92;99823.63;5012882;28;936;-56
2022/01/11 08:44:03;;;;;;;;;;;;;;;-0.79;85.24;99819.47;5012595;28;860;-57
2022/01/11 08:46:30;;;;;;;;;;;;;;;-0.85;84.33;99801.78;5012586;28;805;-55
2022/01/11 08:48:57;;;;;;;;;;;;;;;-0.87;84.54;99804.03;5012440;28;919;-56
2022/01/11 08:51:24;;;;;;;;;;;;;;;-0.80;84.95;99807.00;5012408;28;824;-56
2022/01/11 08:53:51;;;;;;;;;;;;;;;-0.83;84.20;99816.59;5012465;28;805;-57
2022/01/11 08:56:17;;;;;;;;;;;;;;;-0.83;84.61;99832.09;5012384;28;888;-55
2022/01/11 08:58:45;;;;;;;;;;;;;;;-0.77;85.15;99843.56;5012164;28;1906;-55
2022/01/11 09:01:12;;;;;;;;;;;;;;;-0.69;84.90;99848.94;5012341;28;938;-55
2022/01/11 09:03:39;;;;;;;;;;;;;;;-0.70;84.00;99847.38;5012208;28;932;-54
2022/01/11 09:06:08;;;;;;;;;;;;;;;-0.68;84.17;99839.69;5012146;28;872;-57
2022/01/11 09:08:38;;;;;;;;;;;;;;;-0.78;83.82;99833.84;5012039;28;892;-57
2022/01/11 09:11:06;;;;;;;;;;;;;;;-0.85;83.97;99829.69;5012098;28;860;-53
2022/01/11 09:13:32;;;;;;;;;;;;;;;-0.78;83.97;99822.97;5012445;28;900;-57
2022/01/11 09:15:59;;;;;;;;;;;;;;;-0.79;82.86;99834.94;4994600;28;907;-58
2022/01/11 09:18:25;;;;;;;;;;;;;;;-0.77;84.07;99848.97;5011952;28;1890;-57
2022/01/11 09:20:52;;;;;;;;;;;;;;;-0.77;84.59;99838.91;5011978;28;809;-57
2022/01/11 09:23:18;;;;;;;;;;;;;;;-0.76;84.68;99859.53;5012289;28;828;-58
2022/01/11 09:25:45;;;;;;;;;;;;;;;-0.75;84.09;99882.81;5011949;28;859;-57
2022/01/11 09:28:12;;;;;;;;;;;;;;;-0.72;83.97;99854.25;5011845;28;860;-57
2022/01/11 09:30:39;;;;;;;;;;;;;;;-0.75;84.17;99850.25;5011806;28;924;-57
2022/01/11 09:33:05;;;;;;;;;;;;;;;-0.85;83.93;99873.13;5011705;28;1539;-57
2022/01/11 09:35:36;;;;;;;;;;;;;;;-0.91;84.28;99877.13;5011894;28;871;-57
2022/01/11 09:38:02;;;;;;;;;;;;;;;-0.96;85.00;99871.88;5012035;28;1906;-55
2022/01/11 09:40:28;;;;;;;;;;;;;;;-1.04;84.77;99851.00;5011718;28;840;-55
2022/01/11 09:42:56;;;;;;;;;;;;;;;-1.01;84.45;99844.91;5011747;28;825;-56
2022/01/11 09:45:22;;;;;;;;;;;;;;;-0.91;84.70;99835.63;5010927;28;883;-56
2022/01/11 09:47:49;;;;;;;;;;;;;;;-0.83;83.97;99823.97;5011680;28;928;-55
2022/01/11 09:50:16;;;;;;;;;;;;;;;-0.77;83.94;99821.84;5011749;28;820;-55
2022/01/11 09:52:43;;;;;;;;;;;;;;;-0.77;83.64;99816.41;5011629;28;904;-56
2022/01/11 09:55:11;;;;;;;;;;;;;;;-0.83;83.32;99761.53;5011666;28;934;-57
2022/01/11 09:57:38;;;;;;;;;;;;;;;-0.77;82.83;99765.63;5011559;28;1953;-55
2022/01/11 10:00:06;;;;;;;;;;;;;;;-0.79;82.41;99780.66;5011468;28;912;-55
2022/01/11 10:02:32;;;;;;;;;;;;;;;-0.86;82.60;99765.69;5011827;28;813;-55
2022/01/11 10:05:01;;;;;;;;;;;;;;;-0.79;81.97;99743.47;5011566;28;820;-57
2022/01/11 10:07:34;;;;;;;;;;;;;;;-0.78;82.70;99776.84;5011438;28;899;-56
2022/01/11 10:10:01;;;;;;;;;;;;;;;-0.91;82.33;99722.47;4994021;28;2216;-56
2022/01/11 10:12:34;;;;;;;;;;;;;;;-0.93;81.59;99704.91;5011704;28;908;-57
2022/01/11 10:15:03;;;;;;;;;;;;;;;-0.93;82.45;99700.28;4993787;28;833;-56
2022/01/11 10:17:37;;;;;;;;;;;;;;;-0.91;82.50;99714.31;5011338;28;900;-56
2022/01/11 10:20:08;;;;;;;;;;;;;;;-1.00;82.23;99693.78;5011430;28;891;-55
2022/01/11 10:22:50;;;;;;;;;;;;;;;-1.00;81.48;99704.63;5011555;28;946;-55
2022/01/11 10:25:17;;;;;;;;;;;;;;;-0.98;82.69;99734.94;5011362;28;885;-56
2022/01/11 10:27:44;;;;;;;;;;;;;;;-1.13;83.21;99688.28;4993841;28;869;-57
2022/01/11 10:30:12;;;;;;;;;;;;;;;-1.22;83.65;99706.47;5011321;28;849;-55
2022/01/11 10:32:45;;;;;;;;;;;;;;;-1.28;83.50;99722.16;5011114;28;1164;-56
2022/01/11 10:35:13;;;;;;;;;;;;;;;-1.27;83.52;99720.22;5011534;28;879;-54
2022/01/11 10:37:41;;;;;;;;;;;;;;;-1.31;83.69;99700.31;5011316;28;1906;-55
2022/01/11 10:40:17;;;;;;;;;;;;;;;-1.29;84.32;99715.13;5011431;28;872;-56
2022/01/11 10:42:49;;;;;;;;;;;;;;;-1.17;83.12;99705.50;5011169;28;911;-55
2022/01/11 10:45:25;;;;;;;;;;;;;;;-1.21;82.34;99747.97;5011042;28;965;-56
2022/01/11 10:47:59;;;;;;;;;;;;;;;-1.23;82.95;99770.78;5011216;28;892;-55
2022/01/11 10:50:28;;;;;;;;;;;;;;;-1.18;83.38;99758.16;5011134;28;824;-56
2022/01/11 10:52:56;;;;;;;;;;;;;;;-1.19;82.80;99770.94;5011333;28;880;-55
2022/01/11 10:55:24;;;;;;;;;;;;;;;-1.24;82.88;99771.09;5010939;28;877;-56
2022/01/11 10:57:55;;;;;;;;;;;;;;;-1.17;84.03;99803.16;4980347;28;1882;-55
2022/01/11 11:00:22;;;;;;;;;;;;;;;-1.24;82.74;99809.06;5014524;28;844;-55
2022/01/11 11:02:54;;;;;;;;;;;;;;;-1.30;83.83;99813.06;5014384;28;928;-56
2022/01/11 11:05:25;;;;;;;;;;;;;;;-1.29;83.38;99828.22;5014498;28;900;-56
2022/01/11 11:07:56;;;;;;;;;;;;;;;-1.21;83.69;99807.66;5014307;28;832;-55
2022/01/11 11:10:30;;;;;;;;;;;;;;;-1.25;83.56;99823.75;5014358;28;916;-56
2022/01/11 11:12:58;;;;;;;;;;;;;;;-1.24;83.02;99806.34;5014376;28;965;-56
2022/01/11 11:15:31;;;;;;;;;;;;;;;-1.21;82.99;99816.56;5014442;28;903;-55
2022/01/11 11:17:58;;;;;;;;;;;;;;;-1.21;83.62;99824.72;5014224;28;1886;-55
2022/01/11 11:20:25;;;;;;;;;;;;;;;-1.24;83.64;99837.00;5014471;28;899;-55
2022/01/11 11:22:52;;;;;;;;;;;;;;;-1.16;83.78;99848.16;5014162;28;820;-55
2022/01/11 11:25:19;;;;;;;;;;;;;;;-1.19;82.92;99836.03;5014137;28;911;-56
2022/01/11 11:27:46;;;;;;;;;;;;;;;-1.21;83.43;99835.56;5014073;28;864;-56
2022/01/11 11:30:13;;;;;;;;;;;;;;;-1.21;83.70;99842.91;5013970;28;845;-56
2022/01/11 11:32:39;;;;;;;;;;;;;;;-1.25;83.80;99853.59;5013807;28;1469;-55
2022/01/11 11:35:06;;;;;;;;;;;;;;;-1.33;83.84;99830.78;5014018;28;899;-56
2022/01/11 11:37:35;;;;;;;;;;;;;;;-1.29;83.79;99822.81;5013810;28;1058;-55
2022/01/11 11:40:06;;;;;;;;;;;;;;;-1.31;82.83;99817.69;5013679;28;1977;-56
2022/01/11 11:42:33;;;;;;;;;;;;;;;-1.27;83.25;99823.28;5013631;28;900;-56
2022/01/11 11:45:00;;;;;;;;;;;;;;;-1.23;83.50;99824.22;5013682;28;856;-56
2022/01/11 11:47:34;;;;;;;;;;;;;;;-1.24;83.66;99836.19;5013694;28;824;-56
2022/01/11 11:50:02;;;;;;;;;;;;;;;-1.29;83.30;99839.88;5013532;28;951;-56
2022/01/11 11:52:34;;;;;;;;;;;;;;;-1.28;83.21;99851.50;5013404;28;869;-56
2022/01/11 11:55:03;;;;;;;;;;;;;;;-1.32;82.76;99875.00;5013693;28;888;-55
2022/01/11 11:57:32;;;;;;;;;;;;;;;-1.34;83.39;99896.22;5013536;28;864;-56
2022/01/11 12:00:01;;;;;;;;;;;;;;;-1.35;83.14;99905.44;5013266;28;1970;-56
2022/01/11 12:02:35;;;;;;;;;;;;;;;-1.39;82.88;99918.03;5013461;28;844;-55
2022/01/11 12:05:04;;;;;;;;;;;;;;;-1.36;82.93;99920.91;5013257;28;888;-55
2022/01/11 12:07:44;;;;;;;;;;;;;;;-1.42;83.04;99924.91;5012691;28;945;-55
2022/01/11 12:10:14;;;;;;;;;;;;;;;-1.47;83.52;99920.44;5013160;28;939;-56
2022/01/11 12:12:43;;;;;;;;;;;;;;;-1.42;83.71;99930.34;5013200;28;1014;-55
2022/01/11 12:15:23;;;;;;;;;;;;;;;-1.45;83.06;99944.53;5013041;28;947;-56
2022/01/11 12:18:09;;;;;;;;;;;;;;;-1.53;83.86;99920.94;5012894;28;1894;-55
2022/01/11 12:20:43;;;;;;;;;;;;;;;-1.60;84.39;99926.81;5013018;28;1582;-57
2022/01/11 12:26:16;;;;;;;;;;;;;;;-1.61;84.88;99891.91;5013045;28;623;-57
2022/01/11 12:28:43;;;;;;;;;;;;;;;-1.56;85.26;99913.41;5012831;28;911;-56
2022/01/11 12:31:25;;;;;;;;;;;;;;;-1.53;84.80;99923.63;5012611;28;1149;-56
2022/01/11 12:33:52;;;;;;;;;;;;;;;-1.58;84.96;99935.44;5013129;28;883;-55
2022/01/11 12:36:18;;;;;;;;;;;;;;;-1.62;85.01;99956.16;5013123;28;892;-55
2022/01/11 12:39:02;;;;;;;;;;;;;;;-1.62;85.42;99963.47;5013345;28;1942;-55
2022/01/11 12:41:30;;;;;;;;;;;;;;;-1.58;84.77;99976.09;5012701;28;892;-56
2022/01/11 12:44:21;;;;;;;;;;;;;;;-1.62;84.96;99990.56;5012633;28;845;-58
2022/01/11 12:46:50;;;;;;;;;;;;;;;-1.66;85.93;99987.72;5012931;28;911;-55
2022/01/11 12:49:16;;;;;;;;;;;;;;;-1.78;85.42;99990.22;5012709;28;868;-55
2022/01/11 12:51:56;;;;;;;;;;;;;;;-1.83;85.91;99972.22;5012945;28;903;-55
2022/01/11 12:54:23;;;;;;;;;;;;;;;-1.77;86.31;99989.94;5012615;28;989;-55
2022/01/11 12:57:00;;;;;;;;;;;;;;;-1.77;86.02;99983.69;5012368;28;888;-55
2022/01/11 12:59:28;;;;;;;;;;;;;;;-1.85;86.56;99988.78;5012202;28;1894;-55
2022/01/11 13:01:59;;;;;;;;;;;;;;;-1.91;86.56;99986.53;5012162;28;1003;-55
2022/01/11 13:04:52;;;;;;;;;;;;;;;-1.90;86.72;100004.38;5012131;28;934;-55
2022/01/11 13:07:45;;;;;;;;;;;;;;;-1.81;86.66;100007.09;5009005;28;1769;-55
2022/01/11 13:10:19;;;;;;;;;;;;;;;-1.86;86.53;100002.63;5009182;28;1982;-55
2022/01/11 13:12:49;;;;;;;;;;;;;;;-1.86;86.34;99994.50;5012213;28;1021;-55
2022/01/11 13:15:19;;;;;;;;;;;;;;;-1.86;86.38;100010.75;5012085;28;824;-55
2022/01/11 13:17:50;;;;;;;;;;;;;;;-1.88;85.52;99980.47;5012095;28;1934;-55